Terminal Aerodrome Forecast
Issued by NWS

Home | Current Version | Previous Version | Text Only | Print | Product List | Glossary On
Versions: 1 2 3 4 5 6 7 8 9 10 11 12
220
FTUS43 KGRB 182342
TAFCWA
TAF
KCWA 182342Z 1900/1924 23011G17KT P6SM SCT200
     FM190200 27007KT P6SM BKN200
     FM191600 24009G17KT P6SM SCT250
     FM192200 19006KT P6SM SKC
      AMD LTD TO CLD VIS AND WIND 1903/1911=

USA.gov is the U.S. government's official web portal to all federal, state and local government web resources and services.